Time;durP1;ratioP1;P1;durP2;ratioP2;P2;SDS_P1;SDS_P2;PMS_P1;PMS_P2;Temp;Humidity;BMP_temperature;BMP_pressure;BME280_temperature;BME280_humidity;BME280_pressure;Samples;Min_cycle;Max_cycle;Signal;HPM_P1;HPM_P2
2022/08/16 00:02:35;;;;;;;3.20;3.00;;;26.70;50.30;;;;;;5034883;28;20471;-69
2022/08/16 00:05:06;;;;;;;3.33;3.13;;;26.70;50.30;;;;;;5025468;28;20456;-69
2022/08/16 00:07:35;;;;;;;3.20;3.00;;;26.70;50.20;;;;;;5026237;28;20487;-69
2022/08/16 00:10:07;;;;;;;3.50;3.20;;;26.70;50.30;;;;;;5035207;28;20783;-69
2022/08/16 00:12:48;;;;;;;3.70;3.37;;;26.70;50.30;;;;;;5024586;28;20475;-69
2022/08/16 00:15:23;;;;;;;3.50;3.20;;;26.70;50.20;;;;;;5044319;28;20436;-69
2022/08/16 00:18:13;;;;;;;3.50;3.20;;;26.70;50.10;;;;;;5025881;28;20476;-69
2022/08/16 00:20:44;;;;;;;2.77;2.57;;;26.70;50.20;;;;;;5017600;28;20539;-69
2022/08/16 00:23:14;;;;;;;3.03;2.83;;;26.70;50.20;;;;;;5021588;28;20479;-69
2022/08/16 00:25:43;;;;;;;2.60;2.40;;;26.70;50.10;;;;;;5031189;28;20540;-69
2022/08/16 00:28:32;;;;;;;3.10;2.90;;;26.70;50.10;;;;;;5020283;28;20526;-69
2022/08/16 00:31:03;;;;;;;3.40;3.10;;;26.70;50.10;;;;;;5026352;28;20444;-69
2022/08/16 00:33:32;;;;;;;3.03;2.83;;;26.70;50.00;;;;;;5025418;28;20470;-69
2022/08/16 00:36:01;;;;;;;2.90;2.70;;;26.70;50.00;;;;;;5017865;28;20531;-69
2022/08/16 00:38:30;;;;;;;4.00;3.20;;;26.60;49.90;;;;;;5032399;28;20554;-69
2022/08/16 00:41:09;;;;;;;3.30;3.10;;;26.70;50.10;;;;;;5026888;28;20957;-69
2022/08/16 00:43:42;;;;;;;2.90;2.70;;;26.60;50.00;;;;;;5021471;28;20550;-69
2022/08/16 00:46:26;;;;;;;3.03;2.63;;;26.70;49.90;;;;;;5023218;28;20959;-68
2022/08/16 00:49:04;;;;;;;3.40;3.13;;;26.60;49.90;;;;;;5028775;28;20823;-69
2022/08/16 00:51:33;;;;;;;3.60;3.30;;;26.60;49.90;;;;;;5037603;28;20452;-69
2022/08/16 00:54:06;;;;;;;3.13;2.83;;;26.60;49.70;;;;;;5030676;28;20489;-69
2022/08/16 00:56:42;;;;;;;2.80;2.60;;;26.60;49.70;;;;;;5033256;28;20990;-69
2022/08/16 00:59:31;;;;;;;3.30;3.10;;;26.60;49.80;;;;;;5016822;28;20486;-69
2022/08/16 01:02:06;;;;;;;3.10;2.90;;;26.60;49.80;;;;;;5028123;28;20513;-69
2022/08/16 01:04:55;;;;;;;3.30;3.00;;;26.60;49.80;;;;;;5022696;28;20870;-69
2022/08/16 01:07:42;;;;;;;3.43;3.20;;;26.60;49.70;;;;;;5013783;28;20836;-69
2022/08/16 01:10:22;;;;;;;2.90;2.70;;;26.50;49.70;;;;;;5022623;28;20454;-69
2022/08/16 01:13:03;;;;;;;3.17;2.90;;;26.50;49.70;;;;;;5024384;28;21026;-69
2022/08/16 01:15:36;;;;;;;2.67;2.47;;;26.50;49.70;;;;;;5022662;28;20444;-69
2022/08/16 01:18:16;;;;;;;3.00;2.80;;;26.50;49.70;;;;;;5033720;28;20471;-69
2022/08/16 01:21:25;;;;;;;2.93;2.73;;;26.50;49.60;;;;;;5017353;28;20440;-69
2022/08/16 01:24:18;;;;;;;3.40;3.20;;;26.50;49.50;;;;;;5036854;23;20927;-70
2022/08/16 01:27:12;;;;;;;2.93;2.73;;;26.50;49.50;;;;;;5039496;28;20479;-72
2022/08/16 01:29:47;;;;;;;3.60;3.30;;;26.50;49.40;;;;;;5039036;28;20796;-72
2022/08/16 01:32:29;;;;;;;3.00;2.80;;;26.50;49.60;;;;;;5024966;28;20585;-73
2022/08/16 01:35:09;;;;;;;2.90;2.70;;;26.50;49.60;;;;;;5023286;28;20776;-71
2022/08/16 01:37:48;;;;;;;3.80;2.60;;;26.40;49.50;;;;;;5021801;28;21033;-72
2022/08/16 01:40:29;;;;;;;3.07;2.80;;;26.50;49.50;;;;;;5016865;28;20523;-72
2022/08/16 01:42:58;;;;;;;2.80;2.60;;;26.40;49.40;;;;;;5022731;28;20480;-71
2022/08/16 01:45:26;;;;;;;3.50;3.20;;;26.50;49.60;;;;;;5027469;28;20439;-72
2022/08/16 01:48:11;;;;;;;2.67;2.50;;;26.50;49.50;;;;;;5015285;28;20543;-72
2022/08/16 01:50:51;;;;;;;2.70;2.50;;;26.40;49.40;;;;;;5021511;28;20501;-71
2022/08/16 01:53:40;;;;;;;3.27;2.50;;;26.40;49.40;;;;;;5007909;28;20484;-72
2022/08/16 01:56:28;;;;;;;2.73;2.53;;;26.40;49.50;;;;;;5018219;28;20440;-72
2022/08/16 01:58:59;;;;;;;2.77;2.57;;;26.50;49.40;;;;;;5023056;28;20475;-72
2022/08/16 02:01:29;;;;;;;3.00;2.80;;;26.40;49.30;;;;;;5024472;28;20982;-71
2022/08/16 02:04:00;;;;;;;3.20;3.00;;;26.40;49.20;;;;;;5023820;28;20444;-72
2022/08/16 02:06:42;;;;;;;2.87;2.67;;;26.40;49.20;;;;;;5023394;28;20464;-72
2022/08/16 02:09:19;;;;;;;2.80;2.60;;;26.40;49.30;;;;;;5023453;28;20430;-71
2022/08/16 02:11:53;;;;;;;2.90;2.70;;;26.40;49.30;;;;;;5028546;28;20463;-72
2022/08/16 02:14:26;;;;;;;2.87;2.67;;;26.40;49.20;;;;;;5027273;28;20439;-72
2022/08/16 02:17:00;;;;;;;3.60;3.30;;;26.40;49.20;;;;;;5022912;28;20479;-72
2022/08/16 02:19:32;;;;;;;3.17;2.97;;;26.40;49.20;;;;;;5026792;28;20464;-71
2022/08/16 02:22:24;;;;;;;2.93;2.73;;;26.40;49.20;;;;;;5020382;28;20481;-72
2022/08/16 02:25:06;;;;;;;3.13;2.93;;;26.30;49.10;;;;;;5026866;28;20443;-72
2022/08/16 02:27:39;;;;;;;3.23;3.03;;;26.30;49.00;;;;;;5027442;28;20467;-72
2022/08/16 02:30:13;;;;;;;3.40;3.00;;;26.40;49.10;;;;;;5025896;28;20444;-72
2022/08/16 02:33:02;;;;;;;2.70;2.50;;;26.30;49.10;;;;;;5027349;28;20472;-71
2022/08/16 02:35:33;;;;;;;2.97;2.77;;;26.30;49.10;;;;;;5027108;28;20498;-72
2022/08/16 02:38:23;;;;;;;3.10;2.90;;;26.30;49.10;;;;;;5026707;28;20550;-72
2022/08/16 02:40:53;;;;;;;3.10;2.90;;;26.30;49.00;;;;;;5027329;28;20853;-71
2022/08/16 02:43:24;;;;;;;2.90;2.70;;;26.30;49.10;;;;;;5025979;28;20467;-72
2022/08/16 02:45:56;;;;;;;3.20;2.90;;;26.30;48.90;;;;;;5023542;28;20448;-72
2022/08/16 02:48:26;;;;;;;2.80;2.60;;;26.30;49.00;;;;;;5027701;28;20507;-72
2022/08/16 02:51:00;;;;;;;3.53;3.10;;;26.30;48.90;;;;;;5024122;28;20459;-72
2022/08/16 02:53:42;;;;;;;3.27;3.00;;;26.30;49.00;;;;;;5026508;28;20464;-72
2022/08/16 02:56:12;;;;;;;3.37;2.50;;;26.30;49.00;;;;;;5022949;28;20517;-72
2022/08/16 02:58:46;;;;;;;3.60;3.30;;;26.30;48.90;;;;;;5027051;28;20463;-72
2022/08/16 03:01:22;;;;;;;2.80;2.60;;;26.30;48.90;;;;;;5022978;28;20455;-72
2022/08/16 03:04:08;;;;;;;2.87;2.67;;;26.30;48.90;;;;;;5026080;28;20962;-72
2022/08/16 03:06:57;;;;;;;2.90;2.70;;;26.30;48.90;;;;;;5025507;28;20869;-73
2022/08/16 03:09:43;;;;;;;3.13;2.93;;;26.20;48.90;;;;;;5027434;28;20432;-72
2022/08/16 03:12:15;;;;;;;2.47;2.27;;;26.20;48.80;;;;;;5017893;28;20475;-73
2022/08/16 03:14:48;;;;;;;2.63;2.43;;;26.20;48.70;;;;;;5014190;28;20810;-71
2022/08/16 03:17:19;;;;;;;3.13;2.90;;;26.20;48.70;;;;;;5027835;28;20535;-72
2022/08/16 03:19:54;;;;;;;2.93;2.73;;;26.20;48.80;;;;;;5026083;28;20467;-72
2022/08/16 03:22:33;;;;;;;3.50;3.20;;;26.20;48.90;;;;;;5021436;28;20471;-72
2022/08/16 03:25:09;;;;;;;3.00;2.70;;;26.20;48.70;;;;;;5026922;28;20510;-72
2022/08/16 03:27:41;;;;;;;4.50;3.10;;;26.20;48.80;;;;;;5029440;28;20467;-72
2022/08/16 03:30:19;;;;;;;2.70;2.50;;;26.20;48.80;;;;;;5022988;28;20475;-72
2022/08/16 03:32:55;;;;;;;3.43;2.30;;;26.20;48.80;;;;;;5024124;28;20459;-72
2022/08/16 03:35:30;;;;;;;2.73;2.53;;;26.20;48.90;;;;;;5018742;28;20479;-73
2022/08/16 03:38:14;;;;;;;2.60;2.40;;;26.10;48.70;;;;;;5026571;28;20494;-72
2022/08/16 03:41:06;;;;;;;2.60;2.40;;;26.10;48.60;;;;;;5023544;28;20468;-73
2022/08/16 03:43:56;;;;;;;2.80;2.60;;;26.20;48.90;;;;;;5025861;28;20958;-73
2022/08/16 03:46:31;;;;;;;2.67;2.47;;;26.10;50.00;;;;;;5030797;28;20436;-72
2022/08/16 03:49:29;;;;;;;2.77;2.57;;;26.10;48.60;;;;;;5015190;28;20819;-72
2022/08/16 03:52:06;;;;;;;3.17;2.97;;;26.10;48.60;;;;;;5025989;28;22194;-72
2022/08/16 03:54:35;;;;;;;2.40;2.30;;;26.10;48.60;;;;;;5019869;28;20527;-71
2022/08/16 03:57:05;;;;;;;2.80;2.60;;;26.10;48.70;;;;;;5026765;28;20483;-72
2022/08/16 03:59:38;;;;;;;2.63;2.43;;;26.10;48.60;;;;;;5023843;28;20456;-72
2022/08/16 04:02:17;;;;;;;2.43;2.23;;;26.10;48.80;;;;;;5012137;28;20833;-72
2022/08/16 04:05:00;;;;;;;2.63;2.43;;;26.10;48.60;;;;;;5020778;28;21063;-74
2022/08/16 04:07:33;;;;;;;2.90;2.70;;;26.10;48.60;;;;;;5008526;28;20464;-72
2022/08/16 04:10:03;;;;;;;3.07;2.87;;;26.10;48.60;;;;;;5027173;28;20432;-73
2022/08/16 04:12:53;;;;;;;2.60;2.40;;;26.00;48.50;;;;;;5024628;28;20979;-72
2022/08/16 04:15:37;;;;;;;2.50;2.30;;;26.00;48.50;;;;;;5021800;28;20440;-72
2022/08/16 04:18:37;;;;;;;2.43;2.23;;;26.00;48.50;;;;;;5019958;28;20485;-72
2022/08/16 04:21:06;;;;;;;3.03;2.57;;;26.00;48.50;;;;;;5025082;28;20491;-72
2022/08/16 04:23:35;;;;;;;2.30;2.17;;;26.00;48.50;;;;;;5025194;28;21075;-72
2022/08/16 04:26:07;;;;;;;4.70;2.90;;;26.00;48.60;;;;;;5016287;28;20436;-72
2022/08/16 04:28:45;;;;;;;2.40;2.20;;;26.00;48.40;;;;;;5023560;28;20467;-72
2022/08/16 04:31:24;;;;;;;2.77;2.57;;;26.00;48.40;;;;;;5013042;28;20463;-72
2022/08/16 04:34:00;;;;;;;2.60;2.40;;;26.00;48.50;;;;;;5024276;28;20493;-71
2022/08/16 04:36:31;;;;;;;3.00;2.50;;;25.90;48.50;;;;;;5024131;28;20460;-72
2022/08/16 04:39:00;;;;;;;2.50;2.40;;;26.00;48.50;;;;;;5028176;28;20873;-72
2022/08/16 04:41:32;;;;;;;3.97;2.23;;;25.90;48.40;;;;;;5025688;28;21001;-72
2022/08/16 04:44:08;;;;;;;2.83;2.63;;;26.00;48.60;;;;;;5016673;28;20471;-72
2022/08/16 04:46:58;;;;;;;2.73;2.50;;;25.90;48.40;;;;;;5026432;28;20852;-72
2022/08/16 04:49:32;;;;;;;2.57;2.37;;;25.90;48.40;;;;;;5022623;28;20791;-72
2022/08/16 04:52:12;;;;;;;2.40;2.20;;;25.90;48.40;;;;;;5025270;28;20580;-70
2022/08/16 04:55:01;;;;;;;2.57;2.37;;;25.90;48.30;;;;;;5025043;28;20535;-72
2022/08/16 04:57:31;;;;;;;3.50;3.20;;;25.90;48.20;;;;;;5023596;28;20475;-72
2022/08/16 05:00:00;;;;;;;2.70;2.50;;;25.90;48.30;;;;;;5018301;28;20437;-72
2022/08/16 05:02:50;;;;;;;2.67;2.47;;;25.90;48.30;;;;;;5024843;28;21176;-72
2022/08/16 05:05:27;;;;;;;3.07;2.87;;;25.90;48.30;;;;;;5023970;28;20451;-73
2022/08/16 05:08:02;;;;;;;3.83;2.70;;;25.90;48.20;;;;;;5025542;28;20503;-72
2022/08/16 05:10:56;;;;;;;3.30;2.80;;;25.90;48.30;;;;;;5022719;28;20436;-73
2022/08/16 05:13:28;;;;;;;2.60;2.40;;;25.90;48.40;;;;;;5018921;28;21089;-72
2022/08/16 05:16:10;;;;;;;2.57;2.43;;;25.90;48.30;;;;;;5026477;28;20857;-72
2022/08/16 05:18:51;;;;;;;2.70;2.50;;;25.90;48.30;;;;;;5024525;28;20575;-73
2022/08/16 05:21:22;;;;;;;2.50;2.30;;;25.90;49.50;;;;;;5025215;28;20497;-71
2022/08/16 05:23:56;;;;;;;3.03;2.70;;;25.80;48.40;;;;;;5024205;28;20474;-72
2022/08/16 05:26:31;;;;;;;2.97;2.70;;;25.80;48.20;;;;;;5024115;28;20445;-72
2022/08/16 05:29:02;;;;;;;2.63;2.43;;;25.80;48.20;;;;;;5025678;28;20513;-71
2022/08/16 05:31:34;;;;;;;2.87;2.67;;;25.80;48.20;;;;;;5027979;28;20514;-70
2022/08/16 05:34:11;;;;;;;2.60;2.40;;;25.80;48.20;;;;;;5000052;28;20454;-72
2022/08/16 05:36:51;;;;;;;7.23;2.80;;;25.80;48.20;;;;;;5020565;28;20439;-72
2022/08/16 05:39:24;;;;;;;3.20;2.70;;;25.80;48.20;;;;;;5024753;28;20535;-72
2022/08/16 05:41:54;;;;;;;2.77;2.57;;;25.80;48.20;;;;;;5020264;28;20475;-72
2022/08/16 05:44:24;;;;;;;5.03;2.80;;;25.80;48.20;;;;;;5024393;28;20440;-72
2022/08/16 05:46:58;;;;;;;2.63;2.43;;;25.80;48.20;;;;;;5028899;28;20975;-72
2022/08/16 05:49:30;;;;;;;3.43;2.10;;;25.80;48.10;;;;;;5023645;28;20507;-72
2022/08/16 05:52:10;;;;;;;2.57;2.33;;;25.80;48.10;;;;;;5027714;28;20462;-72
2022/08/16 05:54:43;;;;;;;2.50;2.30;;;25.80;48.10;;;;;;5025951;28;20519;-72
2022/08/16 05:57:18;;;;;;;3.10;2.30;;;25.70;48.10;;;;;;5026737;28;20534;-72
2022/08/16 05:59:49;;;;;;;2.60;2.40;;;25.70;48.20;;;;;;5026132;28;20963;-73
2022/08/16 06:02:31;;;;;;;3.00;2.70;;;25.70;48.10;;;;;;5026272;28;21071;-72
2022/08/16 06:05:02;;;;;;;2.93;2.63;;;25.70;48.00;;;;;;5025321;28;20491;-72
2022/08/16 06:07:32;;;;;;;2.87;2.67;;;25.70;48.10;;;;;;5027395;28;20508;-72
2022/08/16 06:10:08;;;;;;;3.10;2.90;;;25.80;48.10;;;;;;5028252;28;20812;-71
2022/08/16 06:12:38;;;;;;;2.40;2.20;;;25.80;48.10;;;;;;5027226;28;21060;-72
2022/08/16 06:15:26;;;;;;;3.10;2.40;;;25.70;48.00;;;;;;5037409;28;20435;-71
2022/08/16 06:18:17;;;;;;;2.63;2.43;;;25.70;48.10;;;;;;5029047;28;20846;-71
2022/08/16 06:21:06;;;;;;;2.23;2.13;;;25.70;48.10;;;;;;5017438;28;20467;-72
2022/08/16 06:23:39;;;;;;;2.90;2.00;;;25.70;48.10;;;;;;5027045;28;20475;-72
2022/08/16 06:26:11;;;;;;;2.80;2.60;;;25.70;48.10;;;;;;5010798;28;20544;-71
2022/08/16 06:28:44;;;;;;;2.73;2.53;;;25.70;48.10;;;;;;5027748;28;20971;-73
2022/08/16 06:31:18;;;;;;;2.80;2.60;;;25.70;48.10;;;;;;5022471;28;20486;-72
2022/08/16 06:33:54;;;;;;;3.27;2.40;;;25.70;48.10;;;;;;5028424;28;21009;-71
2022/08/16 06:36:26;;;;;;;3.47;3.17;;;25.70;48.10;;;;;;5030127;28;20443;-66
2022/08/16 06:39:03;;;;;;;3.23;2.57;;;25.70;48.10;;;;;;5027995;28;20428;-72
2022/08/16 06:41:57;;;;;;;2.83;2.63;;;25.70;48.10;;;;;;5020126;28;20942;-71
2022/08/16 06:44:51;;;;;;;2.40;2.20;;;25.70;48.20;;;;;;5026145;28;20436;-66
2022/08/16 06:47:45;;;;;;;2.80;2.60;;;25.60;48.00;;;;;;5020791;28;20474;-72
2022/08/16 06:50:23;;;;;;;3.13;2.83;;;25.60;48.00;;;;;;5018336;28;20539;-71
2022/08/16 06:52:58;;;;;;;2.90;2.70;;;25.60;48.10;;;;;;5024746;28;20509;-72
2022/08/16 06:55:42;;;;;;;2.40;2.20;;;25.60;48.10;;;;;;5023773;28;20450;-71
2022/08/16 06:58:14;;;;;;;2.80;2.60;;;25.60;48.10;;;;;;5018318;28;20468;-71
2022/08/16 07:01:01;;;;;;;3.03;2.67;;;25.60;48.10;;;;;;5023463;28;20444;-71
2022/08/16 07:03:32;;;;;;;2.53;2.43;;;25.60;48.10;;;;;;5027096;28;20464;-72
2022/08/16 07:06:22;;;;;;;3.30;3.00;;;25.60;48.20;;;;;;5021652;28;20955;-72
2022/08/16 07:08:57;;;;;;;2.53;2.33;;;25.60;48.10;;;;;;5015086;28;20507;-72
2022/08/16 07:11:31;;;;;;;2.30;2.20;;;25.60;48.10;;;;;;5026866;28;21006;-72
2022/08/16 07:14:22;;;;;;;2.50;2.30;;;25.60;48.10;;;;;;5026584;28;20961;-72
2022/08/16 07:16:58;;;;;;;2.40;2.20;;;25.60;48.10;;;;;;5027737;28;20467;-71
2022/08/16 07:19:31;;;;;;;2.80;2.60;;;25.60;48.20;;;;;;5015161;28;20444;-72
2022/08/16 07:22:23;;;;;;;2.50;2.30;;;25.60;48.20;;;;;;5023838;28;20553;-71
2022/08/16 07:25:16;;;;;;;2.40;2.00;;;25.60;48.20;;;;;;5044472;23;20858;-70
2022/08/16 07:27:48;;;;;;;2.60;2.40;;;25.60;48.20;;;;;;5039395;28;20448;-69
2022/08/16 07:30:21;;;;;;;2.70;2.50;;;25.60;48.20;;;;;;5048401;28;20996;-63
2022/08/16 07:33:16;;;;;;;2.57;2.10;;;25.60;48.20;;;;;;5045070;28;20455;-63
2022/08/16 07:36:07;;;;;;;2.37;2.17;;;25.60;48.20;;;;;;5038943;28;20444;-63
2022/08/16 07:38:41;;;;;;;2.53;2.37;;;25.60;48.20;;;;;;5041858;28;20447;-62
2022/08/16 07:41:11;;;;;;;2.60;2.40;;;25.60;48.20;;;;;;5059639;28;20426;-63
2022/08/16 07:43:46;;;;;;;3.10;2.37;;;25.60;49.60;;;;;;5056650;28;20630;-62
2022/08/16 07:46:16;;;;;;;2.80;2.40;;;25.60;48.30;;;;;;5060835;28;20430;-63
2022/08/16 07:49:11;;;;;;;2.47;2.30;;;25.60;48.10;;;;;;5053412;28;20545;-63
2022/08/16 07:51:41;;;;;;;3.10;2.90;;;25.60;48.20;;;;;;5047893;28;20446;-63
2022/08/16 07:54:11;;;;;;;2.70;2.50;;;25.50;48.20;;;;;;5039961;28;20443;-66
2022/08/16 07:57:01;;;;;;;2.93;2.67;;;25.50;48.10;;;;;;5047617;28;20440;-65
2022/08/16 07:59:32;;;;;;;2.83;2.63;;;25.60;48.10;;;;;;5042402;28;20420;-64
2022/08/16 08:02:13;;;;;;;3.10;2.90;;;25.50;48.20;;;;;;5038935;28;20470;-65
2022/08/16 08:04:49;;;;;;;2.80;2.60;;;25.60;48.10;;;;;;5043850;28;20435;-65
2022/08/16 08:07:17;;;;;;;3.10;2.90;;;25.50;48.20;;;;;;5045741;28;20471;-62
2022/08/16 08:09:49;;;;;;;3.40;3.10;;;25.50;48.10;;;;;;5052149;28;21018;-65
2022/08/16 08:12:18;;;;;;;2.97;2.77;;;25.50;48.10;;;;;;5046054;28;20549;-65
2022/08/16 08:15:09;;;;;;;3.73;3.30;;;25.60;48.10;;;;;;5060599;28;20489;-64
2022/08/16 08:17:41;;;;;;;3.03;2.83;;;25.50;48.10;;;;;;5045884;28;20826;-64
2022/08/16 08:20:22;;;;;;;2.97;2.77;;;25.50;48.20;;;;;;5045356;28;20937;-64
2022/08/16 08:22:58;;;;;;;2.80;2.60;;;25.50;48.20;;;;;;5045765;28;20478;-65
2022/08/16 08:25:36;;;;;;;2.60;2.40;;;25.50;48.20;;;;;;5037749;28;20967;-64
2022/08/16 08:28:24;;;;;;;5.22;4.50;;;25.50;48.90;;;;;;5040022;28;20954;-64
2022/08/16 08:31:02;;;;;;;3.90;3.60;;;25.50;49.80;;;;;;5044796;28;20204;-71
2022/08/16 08:33:37;;;;;;;3.23;3.03;;;25.50;49.40;;;;;;5046297;28;20455;-71
2022/08/16 08:36:14;;;;;;;4.13;3.73;;;25.50;49.20;;;;;;5037608;28;20427;-71
2022/08/16 08:38:52;;;;;;;3.77;3.57;;;25.50;49.40;;;;;;5045734;28;20891;-71
2022/08/16 08:41:27;;;;;;;3.30;3.00;;;25.50;49.30;;;;;;5051083;28;20530;-71
2022/08/16 08:43:58;;;;;;;3.57;3.27;;;25.50;49.00;;;;;;5046762;28;20482;-71
2022/08/16 08:46:29;;;;;;;3.57;3.27;;;25.50;49.00;;;;;;5044340;28;20935;-71
2022/08/16 08:49:07;;;;;;;3.13;2.93;;;25.50;49.10;;;;;;5042169;28;20446;-71
2022/08/16 08:51:41;;;;;;;3.10;2.90;;;25.50;48.90;;;;;;5040910;28;20562;-70
2022/08/16 08:54:13;;;;;;;4.23;3.03;;;25.50;48.90;;;;;;5044965;28;20424;-71
2022/08/16 08:56:50;;;;;;;3.43;3.10;;;25.50;48.90;;;;;;5043847;28;20449;-71
2022/08/16 08:59:37;;;;;;;2.90;2.70;;;25.50;48.90;;;;;;5048354;28;20943;-71
2022/08/16 09:02:13;;;;;;;3.23;3.03;;;25.50;49.00;;;;;;5070996;28;20491;-70
2022/08/16 09:04:51;;;;;;;4.00;3.30;;;25.50;49.00;;;;;;5040555;28;20497;-70
2022/08/16 09:07:22;;;;;;;3.30;3.10;;;25.50;49.00;;;;;;5052914;28;21037;-70
2022/08/16 09:09:53;;;;;;;3.70;3.40;;;25.50;48.90;;;;;;5039827;28;20478;-70
2022/08/16 09:12:38;;;;;;;3.47;3.27;;;25.40;48.80;;;;;;5042900;28;20489;-70
2022/08/16 09:15:12;;;;;;;3.33;3.13;;;25.50;49.00;;;;;;5058588;28;20442;-70
2022/08/16 09:17:47;;;;;;;3.30;3.10;;;25.50;48.90;;;;;;5079440;28;20476;-70
2022/08/16 09:20:26;;;;;;;3.60;3.30;;;25.50;49.00;;;;;;5052450;28;20500;-71
2022/08/16 09:22:55;;;;;;;3.70;3.50;;;25.40;48.90;;;;;;5053043;28;20488;-70
2022/08/16 09:25:29;;;;;;;3.33;3.13;;;25.40;49.00;;;;;;5049539;28;20620;-70
2022/08/16 09:28:06;;;;;;;4.10;3.30;;;25.40;49.10;;;;;;5050392;28;20473;-70
2022/08/16 09:30:44;;;;;;;3.87;3.57;;;25.40;49.10;;;;;;5064984;28;20434;-70
2022/08/16 09:33:18;;;;;;;4.50;4.10;;;25.40;49.00;;;;;;5064529;28;20460;-70
2022/08/16 09:35:49;;;;;;;3.73;3.43;;;25.50;49.10;;;;;;5063376;28;20449;-70
2022/08/16 09:38:21;;;;;;;3.97;3.53;;;25.40;49.10;;;;;;5060554;28;20516;-70
2022/08/16 09:41:01;;;;;;;3.60;3.30;;;25.40;49.10;;;;;;5053772;28;20869;-70
2022/08/16 09:43:30;;;;;;;4.07;3.77;;;25.40;49.10;;;;;;5047342;28;20999;-70
2022/08/16 09:46:19;;;;;;;3.40;3.20;;;25.40;49.10;;;;;;5046478;28;20533;-70
2022/08/16 09:49:09;;;;;;;3.17;2.97;;;25.40;49.10;;;;;;5042408;28;20573;-70
2022/08/16 09:51:39;;;;;;;3.70;3.40;;;25.40;49.20;;;;;;5052417;28;21013;-70
2022/08/16 09:54:09;;;;;;;5.37;4.43;;;25.40;49.10;;;;;;5044459;28;20430;-70
2022/08/16 09:56:48;;;;;;;3.83;3.53;;;25.40;49.20;;;;;;5061270;28;20971;-70
2022/08/16 09:59:22;;;;;;;3.57;3.33;;;25.40;49.10;;;;;;5068043;28;20441;-71
2022/08/16 10:01:53;;;;;;;3.67;3.37;;;25.40;49.10;;;;;;5068283;28;20482;-70
2022/08/16 10:04:25;;;;;;;3.47;3.00;;;25.40;49.10;;;;;;5069434;28;20828;-71
2022/08/16 10:07:00;;;;;;;4.27;3.97;;;25.40;49.10;;;;;;5072648;28;20461;-70
2022/08/16 10:09:30;;;;;;;3.80;3.50;;;25.40;49.30;;;;;;5077249;28;20937;-63
2022/08/16 10:15:12;;;;;;;4.30;4.00;;;25.40;49.20;;;;;;5081534;28;20446;-71
2022/08/16 10:17:45;;;;;;;4.00;3.70;;;25.40;49.20;;;;;;5058003;28;20471;-64
2022/08/16 10:20:33;;;;;;;4.63;4.30;;;25.40;49.20;;;;;;5068147;28;20812;-63
2022/08/16 10:23:06;;;;;;;3.90;3.50;;;25.40;49.20;;;;;;5060474;28;20457;-64
2022/08/16 10:25:39;;;;;;;5.43;3.67;;;25.40;49.20;;;;;;5048006;28;20517;-64
2022/08/16 10:28:29;;;;;;;3.80;3.50;;;25.40;49.20;;;;;;5044238;28;21086;-64
2022/08/16 10:31:09;;;;;;;4.17;3.47;;;25.40;49.30;;;;;;5054095;28;20429;-63
2022/08/16 10:33:45;;;;;;;3.83;3.53;;;25.40;49.20;;;;;;5066888;28;20510;-63
2022/08/16 10:36:17;;;;;;;4.23;3.93;;;25.40;49.30;;;;;;5039639;28;20450;-64
2022/08/16 10:39:07;;;;;;;4.23;3.80;;;25.40;49.30;;;;;;5068789;28;21015;-64
2022/08/16 10:41:37;;;;;;;3.87;3.57;;;25.40;49.30;;;;;;5083567;28;20476;-64
2022/08/16 10:44:06;;;;;;;4.53;4.13;;;25.40;49.40;;;;;;5054627;28;20492;-63
2022/08/16 10:46:37;;;;;;;4.07;3.77;;;25.40;49.40;;;;;;5053912;28;21024;-63
2022/08/16 10:49:10;;;;;;;4.03;3.73;;;25.40;49.40;;;;;;5065765;28;20937;-64
2022/08/16 10:51:41;;;;;;;4.40;4.03;;;25.40;49.30;;;;;;5052389;28;20456;-63
2022/08/16 10:54:29;;;;;;;4.27;3.87;;;25.40;49.40;;;;;;5056972;28;20453;-64
2022/08/16 10:56:59;;;;;;;4.60;4.30;;;25.40;49.30;;;;;;5061541;28;20531;-63
2022/08/16 10:59:32;;;;;;;4.50;4.10;;;25.40;49.30;;;;;;5055480;28;20534;-64
2022/08/16 11:02:18;;;;;;;4.40;4.00;;;25.40;49.30;;;;;;5059808;28;20481;-65
2022/08/16 11:05:11;;;;;;;4.10;3.80;;;25.40;49.30;;;;;;5066208;28;20507;-64
2022/08/16 11:07:45;;;;;;;4.00;3.70;;;25.40;49.40;;;;;;5063047;28;20515;-64
2022/08/16 11:10:27;;;;;;;4.73;4.43;;;25.40;49.30;;;;;;5077589;28;20435;-64
2022/08/16 11:13:21;;;;;;;4.10;3.80;;;25.40;49.30;;;;;;5060648;28;20531;-63
2022/08/16 11:16:10;;;;;;;5.00;4.50;;;25.40;49.30;;;;;;5057497;28;21028;-64
2022/08/16 11:18:59;;;;;;;5.13;4.00;;;25.40;49.30;;;;;;5048803;28;20458;-63
2022/08/16 11:21:35;;;;;;;5.10;4.70;;;25.40;49.30;;;;;;5057309;28;20490;-70
2022/08/16 11:24:27;;;;;;;4.73;4.33;;;25.40;49.30;;;;;;5060006;28;20488;-71
2022/08/16 11:27:14;;;;;;;4.87;4.47;;;25.40;49.30;;;;;;5046093;28;20465;-70
2022/08/16 11:29:47;;;;;;;4.30;4.00;;;25.40;49.30;;;;;;5049566;28;20469;-70
2022/08/16 11:32:17;;;;;;;4.47;4.20;;;25.40;49.20;;;;;;5063160;28;20463;-71
2022/08/16 11:34:49;;;;;;;3.90;3.60;;;25.40;49.30;;;;;;5038010;28;20458;-71
2022/08/16 11:37:39;;;;;;;4.70;4.30;;;25.40;49.30;;;;;;5048614;28;20475;-70
2022/08/16 11:40:33;;;;;;;5.17;4.33;;;25.40;49.40;;;;;;5053710;28;20427;-70
2022/08/16 11:43:04;;;;;;;4.70;4.30;;;25.40;49.40;;;;;;5058712;28;20560;-70
2022/08/16 11:45:33;;;;;;;5.57;5.17;;;25.40;49.30;;;;;;5056346;28;20557;-70
2022/08/16 11:48:05;;;;;;;4.30;4.03;;;25.40;49.20;;;;;;5041936;28;20459;-70
2022/08/16 11:50:34;;;;;;;4.60;4.30;;;25.40;49.20;;;;;;5046844;28;20476;-70
2022/08/16 11:53:05;;;;;;;4.60;4.30;;;25.40;49.20;;;;;;5055090;28;20474;-70
2022/08/16 11:55:38;;;;;;;4.00;3.70;;;25.40;50.40;;;;;;5048486;28;20437;-70
2022/08/16 11:58:12;;;;;;;4.07;3.80;;;25.40;49.20;;;;;;5054824;28;20833;-70
2022/08/16 12:00:45;;;;;;;4.43;4.13;;;25.40;49.10;;;;;;5052927;28;20430;-70
2022/08/16 12:03:22;;;;;;;4.67;4.37;;;25.40;49.20;;;;;;5043658;28;20514;-70
2022/08/16 12:06:09;;;;;;;4.30;4.00;;;25.40;49.10;;;;;;5055047;28;20776;-63
2022/08/16 12:08:56;;;;;;;4.63;4.23;;;25.50;49.10;;;;;;5067446;28;20491;-70
2022/08/16 12:11:30;;;;;;;4.93;4.63;;;25.50;49.20;;;;;;5057928;28;20460;-70
2022/08/16 12:14:01;;;;;;;4.50;4.10;;;25.50;49.20;;;;;;5053614;28;20446;-70
2022/08/16 12:16:32;;;;;;;5.33;4.97;;;25.50;49.10;;;;;;5071752;28;20490;-70
2022/08/16 12:19:03;;;;;;;4.70;4.40;;;25.50;49.10;;;;;;5074570;28;20438;-70
2022/08/16 12:24:25;;;;;;;4.80;4.43;;;25.50;49.00;;;;;;5044223;28;20516;-52
2022/08/16 12:26:56;;;;;;;4.97;4.67;;;25.50;49.10;;;;;;5050398;28;20431;-52
2022/08/16 12:29:28;;;;;;;5.47;5.07;;;25.50;49.00;;;;;;5032225;28;20439;-50
2022/08/16 12:31:59;;;;;;;4.83;4.50;;;25.50;49.00;;;;;;5032845;28;21065;-52
2022/08/16 12:34:48;;;;;;;5.20;4.80;;;25.50;49.10;;;;;;5027661;28;20837;-52
2022/08/16 12:37:21;;;;;;;4.80;4.50;;;25.50;49.00;;;;;;5030848;28;20432;-52
2022/08/16 12:39:53;;;;;;;4.10;3.80;;;25.50;48.90;;;;;;5025757;28;20434;-52
2022/08/16 12:42:23;;;;;;;4.80;4.50;;;25.60;49.00;;;;;;5052387;28;20455;-51
2022/08/16 12:45:05;;;;;;;4.37;3.97;;;25.60;49.00;;;;;;5049975;28;20491;-54
2022/08/16 12:50:40;;;;;;;4.10;3.80;;;25.50;48.90;;;;;;5046887;28;20466;-51
2022/08/16 12:53:08;;;;;;;5.27;4.87;;;25.50;49.00;;;;;;5023701;28;20483;-52
2022/08/16 12:55:38;;;;;;;4.60;4.20;;;25.60;49.00;;;;;;5050646;28;20497;-52
2022/08/16 12:58:12;;;;;;;5.27;4.40;;;25.60;49.00;;;;;;5049421;28;20471;-51
2022/08/16 13:01:01;;;;;;;4.50;4.20;;;25.60;49.00;;;;;;5048787;28;20790;-52
2022/08/16 13:03:29;;;;;;;5.13;4.63;;;25.60;48.90;;;;;;5031034;28;20562;-52
2022/08/16 13:06:07;;;;;;;4.63;4.33;;;25.60;48.90;;;;;;5048289;28;20475;-52
2022/08/16 13:08:36;;;;;;;5.50;4.37;;;25.60;48.90;;;;;;5048423;28;20467;-52
2022/08/16 13:11:05;;;;;;;5.33;5.03;;;25.60;48.90;;;;;;5050014;28;20446;-52
2022/08/16 13:13:36;;;;;;;5.17;4.77;;;25.60;48.90;;;;;;5048708;28;20524;-52
2022/08/16 13:16:05;;;;;;;4.60;4.20;;;25.60;48.90;;;;;;5048995;28;20435;-52
2022/08/16 13:18:47;;;;;;;4.90;4.50;;;25.60;48.90;;;;;;5046194;28;20467;-52
2022/08/16 13:21:21;;;;;;;4.50;4.20;;;25.60;48.90;;;;;;5046130;28;20771;-52
2022/08/16 13:23:52;;;;;;;4.67;4.37;;;25.60;48.90;;;;;;5031682;28;20502;-52
2022/08/16 13:26:23;;;;;;;5.13;4.73;;;25.60;48.80;;;;;;5050571;23;20652;-64
2022/08/16 13:28:55;;;;;;;5.47;5.07;;;25.60;48.80;;;;;;5044882;28;20426;-66
2022/08/16 13:31:24;;;;;;;4.03;3.83;;;25.60;48.70;;;;;;5066643;28;20465;-66
2022/08/16 13:33:53;;;;;;;4.50;4.10;;;25.70;48.70;;;;;;5046603;28;20430;-66
2022/08/16 13:36:26;;;;;;;4.40;4.03;;;25.70;48.70;;;;;;5043252;28;20430;-65
2022/08/16 13:39:17;;;;;;;5.43;5.03;;;25.70;48.80;;;;;;5060530;28;20851;-67
2022/08/16 13:41:45;;;;;;;4.70;4.37;;;25.70;48.70;;;;;;5048775;28;20462;-65
2022/08/16 13:44:23;;;;;;;4.80;4.50;;;25.70;49.00;;;;;;5036118;28;20474;-66
2022/08/16 13:47:11;;;;;;;5.10;4.80;;;25.70;48.70;;;;;;5048263;28;20462;-65
2022/08/16 13:49:40;;;;;;;5.37;4.97;;;25.70;48.60;;;;;;5044667;28;20752;-66